Terminal Aerodrome Forecast
Issued by NWS

Home | Current Version | Previous Version | Text Only | Print | Product List | Glossary On
Versions: 1 2 3 4 5 6 7 8 9 10 11 12 13 14 15 16 17
807
FTUS45 KTFX 060520
TAFLWT
TAF
KLWT 060520Z 0606/0706 29007KT P6SM SCT025 BKN050
      TEMPO 0609/0612 4SM -SHSN OVC025
     FM061200 30006KT P6SM VCSH SCT020 OVC035
     FM062200 31008KT P6SM SCT010 BKN025 PROB30 0622/0702 4SM -SHSN
      SCT004 OVC010=

USA.gov is the U.S. government's official web portal to all federal, state and local government web resources and services.